createdAt,value
2019-05-10T00:02:32.053Z,74.70
2019-05-10T00:05:20.517Z,74.50
2019-05-10T00:08:08.332Z,74.90
2019-05-10T00:10:39.060Z,75.00
2019-05-10T00:13:14.456Z,74.70
2019-05-10T00:15:49.259Z,74.60
2019-05-10T00:18:20.458Z,74.40
2019-05-10T00:20:52.293Z,74.60
2019-05-10T00:23:36.615Z,74.70
2019-05-10T00:26:07.832Z,74.50
2019-05-10T00:28:38.072Z,73.90
2019-05-10T00:31:13.741Z,73.70
2019-05-10T00:33:48.058Z,73.20
2019-05-10T00:36:21.157Z,73.20
2019-05-10T00:38:54.497Z,73.30
2019-05-10T00:41:24.163Z,73.80
2019-05-10T00:43:55.566Z,74.20
2019-05-10T00:46:25.696Z,74.40
2019-05-10T00:48:56.778Z,74.40
2019-05-10T00:51:29.451Z,74.60
2019-05-10T00:53:59.873Z,74.40
2019-05-10T00:56:29.992Z,74.50
2019-05-10T00:59:00.035Z,74.80
2019-05-10T01:01:32.905Z,75.00
2019-05-10T01:04:04.194Z,75.10
2019-05-10T01:06:34.470Z,74.80
2019-05-10T01:09:05.549Z,74.50
2019-05-10T01:11:36.147Z,74.50
2019-05-10T01:14:07.266Z,74.70
2019-05-10T01:16:38.485Z,74.80
2019-05-10T01:19:10.093Z,74.60
2019-05-10T01:21:42.884Z,74.60
2019-05-10T01:24:24.565Z,74.30
2019-05-10T01:26:55.341Z,74.50
2019-05-10T01:29:26.027Z,74.70
2019-05-10T01:31:57.793Z,75.00
2019-05-10T01:34:28.566Z,74.80
2019-05-10T01:37:01.878Z,75.00
2019-05-10T01:39:31.285Z,75.00
2019-05-10T01:42:04.078Z,74.90
2019-05-10T01:44:34.218Z,74.70
2019-05-10T01:47:04.042Z,75.00
2019-05-10T01:49:33.705Z,75.10
2019-05-10T01:52:06.010Z,75.20
2019-05-10T01:54:37.653Z,75.30
2019-05-10T01:57:08.440Z,75.60
2019-05-10T01:59:38.568Z,75.50
2019-05-10T02:02:08.519Z,75.70
2019-05-10T02:04:40.974Z,76.30
2019-05-10T02:09:48.703Z,75.70
2019-05-10T02:12:20.583Z,75.60
2019-05-10T02:14:57.972Z,75.80
2019-05-10T02:17:27.147Z,75.50
2019-05-10T02:19:59.986Z,75.60
2019-05-10T02:22:30.477Z,76.10
2019-05-10T02:25:01.114Z,76.40
2019-05-10T02:27:30.856Z,76.70
2019-05-10T02:30:02.096Z,76.90
2019-05-10T02:32:36.147Z,77.30
2019-05-10T02:35:07.993Z,77.50
2019-05-10T02:37:37.800Z,77.90
2019-05-10T02:40:13.320Z,78.10
2019-05-10T02:42:44.844Z,78.20
2019-05-10T02:45:19.017Z,78.60
2019-05-10T02:47:49.449Z,78.90
2019-05-10T02:50:20.442Z,79.00
2019-05-10T02:52:51.715Z,79.50
2019-05-10T02:55:22.380Z,79.20
2019-05-10T02:57:55.852Z,79.10
2019-05-10T03:00:29.795Z,78.70
2019-05-10T03:03:03.630Z,78.60
2019-05-10T03:05:35.080Z,78.20
2019-05-10T03:08:06.734Z,78.10
2019-05-10T03:10:39.386Z,77.90
2019-05-10T03:13:12.351Z,78.10
2019-05-10T03:15:47.762Z,78.10
2019-05-10T03:18:21.477Z,78.10
2019-05-10T03:20:53.544Z,78.10
2019-05-10T03:23:24.230Z,77.90
2019-05-10T03:25:59.697Z,77.60
2019-05-10T03:28:31.087Z,77.60
2019-05-10T03:31:01.758Z,77.40
2019-05-10T03:33:31.284Z,77.20
2019-05-10T03:36:02.330Z,76.90
2019-05-10T03:38:34.403Z,76.60
2019-05-10T03:41:05.700Z,76.80
2019-05-10T03:43:38.346Z,76.90
2019-05-10T03:46:13.969Z,76.70
2019-05-10T03:48:45.235Z,76.70
2019-05-10T03:54:04.760Z,76.70
2019-05-10T03:56:37.533Z,76.80
2019-05-10T03:59:09.573Z,76.60
2019-05-10T04:01:44.733Z,76.30
2019-05-10T04:07:11.994Z,76.40
2019-05-10T04:09:48.625Z,76.40
2019-05-10T04:12:35.308Z,76.30
2019-05-10T04:15:10.585Z,76.00
2019-05-10T04:24:05.697Z,74.90
2019-05-10T04:26:38.787Z,74.60
2019-05-10T04:29:14.949Z,74.60
2019-05-10T04:34:40.271Z,74.50
2019-05-10T05:06:35.154Z,71.20
2019-05-10T05:12:14.008Z,70.20
2019-05-10T05:17:55.738Z,69.30
2019-05-10T05:20:26.203Z,69.00
2019-05-10T05:23:00.391Z,68.50
2019-05-10T06:01:09.364Z,66.00
2019-05-10T06:04:05.952Z,65.70
2019-05-10T06:27:25.963Z,63.80
2019-05-10T07:27:24.403Z,66.00
2019-05-10T08:03:48.460Z,64.90
2019-05-10T09:41:27.734Z,62.70
2019-05-10T09:50:23.928Z,60.30
2019-05-10T09:53:12.655Z,60.40
2019-05-10T09:56:03.300Z,60.40
2019-05-10T10:01:44.687Z,63.70
2019-05-10T10:04:22.034Z,66.50
2019-05-10T10:40:35.012Z,71.00
2019-05-10T10:59:42.347Z,64.80
2019-05-10T11:02:33.227Z,63.20
2019-05-10T13:43:53.583Z,48.20
2019-05-10T13:46:29.888Z,45.90
2019-05-10T13:49:12.984Z,41.40
2019-05-10T13:52:37.556Z,38.10
2019-05-10T13:54:31.172Z,37.60
2019-05-10T13:57:19.208Z,37.10
2019-05-10T13:59:55.620Z,38.40
2019-05-10T14:08:48.489Z,38.60
2019-05-10T14:11:18.761Z,39.50
2019-05-10T14:13:48.788Z,40.20
2019-05-10T14:16:43.596Z,37.30
2019-05-10T14:19:15.968Z,34.60
2019-05-10T14:21:45.266Z,33.90
2019-05-10T14:24:28.662Z,33.20
2019-05-10T14:26:59.404Z,34.80
2019-05-10T14:29:34.350Z,36.50
2019-05-10T14:32:02.198Z,35.40
2019-05-10T14:34:31.669Z,35.50
2019-05-10T14:37:04.703Z,35.90
2019-05-10T14:39:33.602Z,36.80
2019-05-10T14:42:02.685Z,36.40
2019-05-10T14:44:33.184Z,38.00
2019-05-10T14:47:02.285Z,40.00
2019-05-10T14:49:31.514Z,42.20
2019-05-10T14:52:00.769Z,45.00
2019-05-10T14:54:42.818Z,47.80
2019-05-10T14:57:02.270Z,49.40
2019-05-10T14:59:30.707Z,50.60
2019-05-10T15:01:59.835Z,51.70
2019-05-10T15:04:44.642Z,52.10
2019-05-10T15:06:59.663Z,52.00
2019-05-10T15:09:28.584Z,52.10
2019-05-10T15:12:01.469Z,51.90
2019-05-10T15:14:31.592Z,49.60
2019-05-10T15:17:00.896Z,46.50
2019-05-10T15:19:31.404Z,45.80
2019-05-10T15:22:00.854Z,45.20
2019-05-10T15:24:31.107Z,44.80
2019-05-10T15:27:00.595Z,45.80
2019-05-10T15:29:30.256Z,47.00
2019-05-10T15:31:59.489Z,47.60
2019-05-10T15:34:29.980Z,48.70
2019-05-10T15:37:02.483Z,48.40
2019-05-10T15:39:32.193Z,46.60
2019-05-10T15:42:01.099Z,44.80
2019-05-10T16:19:59.663Z,34.90
2019-05-10T16:22:38.305Z,33.60
2019-05-10T16:28:31.336Z,34.30
2019-05-10T16:37:09.128Z,33.10
2019-05-10T17:39:02.840Z,51.20
2019-05-10T17:41:35.968Z,52.80
2019-05-10T18:08:16.829Z,62.30
2019-05-10T18:14:12.384Z,63.80
2019-05-10T18:17:37.205Z,64.40
2019-05-10T18:34:35.940Z,68.00
2019-05-10T18:38:18.330Z,68.70
2019-05-10T18:40:48.067Z,69.00
2019-05-10T18:46:49.711Z,69.90
2019-05-10T18:49:20.483Z,71.20
2019-05-10T18:51:58.163Z,71.70
2019-05-10T18:54:24.681Z,72.10
2019-05-10T18:56:56.154Z,72.60
2019-05-10T18:59:26.330Z,73.00
2019-05-10T19:01:55.763Z,73.40
2019-05-10T19:04:25.654Z,73.90
2019-05-10T19:07:09.130Z,74.20
2019-05-10T19:09:28.998Z,74.70
2019-05-10T19:11:58.820Z,75.10
2019-05-10T19:14:29.569Z,75.60
2019-05-10T19:17:03.697Z,76.00
2019-05-10T19:19:35.218Z,76.30
2019-05-10T19:22:02.971Z,77.10
2019-05-10T19:24:32.339Z,77.50
2019-05-10T19:27:07.315Z,77.90
2019-05-10T19:29:44.875Z,78.30
2019-05-10T19:32:11.618Z,78.80
2019-05-10T19:38:06.389Z,79.60
2019-05-10T19:40:35.485Z,79.90
2019-05-10T19:43:04.927Z,80.50
2019-05-10T19:45:34.085Z,81.00
2019-05-10T19:48:05.949Z,81.60
2019-05-10T19:50:44.451Z,81.90
2019-05-10T19:53:13.594Z,82.30
2019-05-10T19:55:42.448Z,82.40
2019-05-10T19:58:11.399Z,82.70
2019-05-10T20:00:40.543Z,82.30
2019-05-10T20:03:09.541Z,82.30
